createdAt,value
2023-04-21T00:05:04.610Z,86.94
2023-04-21T00:11:24.594Z,86.91
2023-04-21T00:17:47.612Z,86.78
2023-04-21T00:24:07.622Z,86.68
2023-04-21T00:30:30.580Z,86.44
2023-04-21T00:36:50.730Z,87.1
2023-04-21T00:43:13.611Z,87.06
2023-04-21T00:49:33.592Z,87.27
2023-04-21T00:55:56.636Z,87.27
2023-04-21T01:02:16.671Z,86.97
2023-04-21T01:08:39.591Z,86.62
2023-04-21T01:14:59.623Z,86.32
2023-04-21T01:21:22.610Z,86.46
2023-04-21T01:27:42.632Z,86.54
2023-04-21T01:34:05.660Z,86.37
2023-04-21T01:40:25.608Z,86.5
2023-04-21T01:46:48.569Z,86.78
2023-04-21T01:53:08.651Z,87.07
2023-04-21T01:59:31.619Z,86.92
2023-04-21T02:05:51.625Z,87.04
2023-04-21T02:12:14.604Z,86.71
2023-04-21T02:18:34.602Z,86.42
2023-04-21T02:24:57.638Z,86.3
2023-04-21T02:31:17.751Z,86.56
2023-04-21T02:37:40.634Z,86.15
2023-04-21T02:44:00.604Z,86.3
2023-04-21T02:50:23.594Z,86.08
2023-04-21T02:56:43.601Z,86.75
2023-04-21T03:03:06.624Z,86.32
2023-04-21T03:09:26.641Z,87.06
2023-04-21T03:32:14.715Z,87.25
2023-04-21T03:38:37.605Z,87.05
2023-04-21T03:44:57.639Z,86.87
2023-04-21T03:51:20.591Z,87.15
2023-04-21T03:57:40.585Z,87.15
2023-04-21T04:04:03.852Z,86.9
2023-04-21T04:10:23.849Z,87.05
2023-04-21T04:16:46.624Z,86.74
2023-04-21T04:23:06.625Z,87.29
2023-04-21T04:29:29.643Z,87.28
2023-04-21T04:35:49.606Z,87.57
2023-04-21T04:42:12.615Z,87.51
2023-04-21T04:48:32.619Z,87.53
2023-04-21T04:54:55.613Z,87.59
2023-04-21T05:01:15.586Z,87.44
2023-04-21T05:07:38.652Z,87.99
2023-04-21T05:13:58.619Z,88.03
2023-04-21T05:20:21.591Z,87.68
2023-04-21T05:26:41.591Z,87.9
2023-04-21T05:33:04.669Z,87.74
2023-04-21T05:39:24.613Z,87.48
2023-04-21T05:45:47.688Z,87.53
2023-04-21T05:52:07.578Z,86.81
2023-04-21T05:58:30.597Z,87.02
2023-04-21T06:04:50.815Z,86.84
2023-04-21T06:11:13.622Z,87.02
2023-04-21T06:17:33.699Z,87.16
2023-04-21T06:23:56.705Z,87.45
2023-04-21T06:30:16.635Z,87.45
2023-04-21T06:36:39.632Z,87.78
2023-04-21T06:42:59.605Z,87.9
2023-04-21T06:49:22.586Z,87.85
2023-04-21T06:55:42.609Z,88.25
2023-04-21T07:02:05.682Z,88.36
2023-04-21T07:08:25.693Z,88.36
2023-04-21T07:14:48.669Z,88.44
2023-04-21T07:21:08.663Z,88.91
2023-04-21T07:27:31.577Z,88.47
2023-04-21T07:33:51.605Z,88.56
2023-04-21T07:40:14.696Z,88.37
2023-04-21T07:46:34.656Z,88.43
2023-04-21T07:52:57.614Z,87.86
2023-04-21T07:59:17.985Z,86.52
2023-04-21T08:05:41.797Z,85.83
2023-04-21T08:12:00.580Z,85
2023-04-21T08:18:23.718Z,84.59
2023-04-21T08:36:02.832Z,82.34
2023-04-21T08:42:15.578Z,80.94
2023-04-21T08:48:35.590Z,80.32
2023-04-21T08:54:58.943Z,80.85
2023-04-21T09:01:19.073Z,78.8
2023-04-21T09:07:41.591Z,79.18
2023-04-21T09:14:01.601Z,77.33
2023-04-21T09:20:24.633Z,77.38
2023-04-21T09:26:44.566Z,76.53
2023-04-21T09:33:16.737Z,76.05
2023-04-21T09:39:40.400Z,75.48
2023-04-21T09:45:50.582Z,74.69
2023-04-21T09:52:18.205Z,73.17
2023-04-21T09:58:33.675Z,71.47
2023-04-21T10:04:53.792Z,70.57
2023-04-21T10:11:16.602Z,70.31
2023-04-21T10:17:36.579Z,67.77
2023-04-21T10:23:59.618Z,69.65
2023-04-21T10:30:19.614Z,68.82
2023-04-21T10:36:42.628Z,66.01
2023-04-21T10:43:02.591Z,64.3
2023-04-21T10:49:25.638Z,65.93
2023-04-21T10:55:45.577Z,63.79
2023-04-21T11:02:09.633Z,62.3
2023-04-21T11:08:29.621Z,59.75
2023-04-21T11:14:52.580Z,59.49
2023-04-21T11:21:12.663Z,55.91
2023-04-21T11:27:35.822Z,56.52
2023-04-21T11:33:55.587Z,56.67
2023-04-21T11:40:18.619Z,52.49
2023-04-21T11:46:38.794Z,54.75
2023-04-21T11:53:01.617Z,55.4
2023-04-21T11:59:23.176Z,56.37
2023-04-21T12:05:44.656Z,54.2
2023-04-21T12:12:04.582Z,51.76
2023-04-21T12:18:27.566Z,53.43
2023-04-21T12:24:47.665Z,53.9
2023-04-21T12:31:10.583Z,54.37
2023-04-21T12:37:30.610Z,54.14
2023-04-21T12:43:53.620Z,52.53
2023-04-21T12:50:13.676Z,51.2
2023-04-21T12:56:36.573Z,51.03
2023-04-21T13:02:56.659Z,52.34
2023-04-21T13:09:19.592Z,52.24
2023-04-21T13:15:39.581Z,52.91
2023-04-21T13:22:02.600Z,54.39
2023-04-21T13:28:22.600Z,52.87
2023-04-21T13:34:45.572Z,52.85
2023-04-21T13:41:05.603Z,51.15
2023-04-21T13:47:28.577Z,50.41
2023-04-21T13:53:48.585Z,47.54
2023-04-21T14:11:22.574Z,45.53
2023-04-21T14:17:42.604Z,46.55
2023-04-21T14:24:05.585Z,47.18
2023-04-21T14:30:25.611Z,45.17
2023-04-21T14:36:48.607Z,45.26
2023-04-21T14:43:08.588Z,45.33
2023-04-21T14:49:31.921Z,46.67
2023-04-21T14:55:52.967Z,47.03
2023-04-21T15:02:14.703Z,48.16
2023-04-21T15:08:34.593Z,44.66
2023-04-21T15:14:57.599Z,47.29
2023-04-21T15:21:17.592Z,46
2023-04-21T15:27:40.610Z,47.65
2023-04-21T15:34:00.596Z,46.08
2023-04-21T15:40:23.587Z,46.97
2023-04-21T15:46:43.675Z,46.13
2023-04-21T15:53:06.583Z,46.3
2023-04-21T15:59:26.656Z,47.49
2023-04-21T16:05:49.677Z,47.79
2023-04-21T16:12:09.595Z,46.7
2023-04-21T16:18:32.652Z,47.89
2023-04-21T16:24:52.676Z,49.94
2023-04-21T16:31:15.637Z,50.29
2023-04-21T16:37:35.666Z,48.17
2023-04-21T16:43:58.635Z,44.61
2023-04-21T16:50:18.612Z,43.96
2023-04-21T16:56:41.572Z,43.45
2023-04-21T17:03:01.669Z,45.3
2023-04-21T17:09:24.575Z,47.09
2023-04-21T17:15:44.557Z,48
2023-04-21T17:22:07.618Z,48.92
2023-04-21T17:28:27.563Z,50.65
2023-04-21T17:34:50.604Z,51.07
2023-04-21T17:41:10.697Z,52.66
2023-04-21T17:47:33.576Z,52.22
2023-04-21T17:53:53.597Z,53.74
2023-04-21T18:00:16.600Z,53.83
2023-04-21T18:06:36.575Z,54.83
2023-04-21T18:12:59.582Z,55.74
2023-04-21T18:19:19.578Z,56.49
2023-04-21T18:25:43.286Z,56.78
2023-04-21T18:32:02.583Z,57.57
2023-04-21T18:38:25.598Z,57.45
2023-04-21T18:44:45.585Z,57.8
2023-04-21T18:51:08.560Z,58.59
2023-04-21T18:57:28.635Z,66.32
2023-04-21T19:03:51.671Z,69.72
2023-04-21T19:10:11.564Z,70.85
2023-04-21T19:16:34.646Z,72.06
2023-04-21T19:22:54.579Z,77.23
2023-04-21T19:29:17.613Z,78.68
2023-04-21T19:35:37.610Z,78.94
2023-04-21T19:42:00.558Z,79.16
2023-04-21T20:06:00.563Z,79.87
2023-04-21T20:12:20.566Z,79.37
2023-04-21T20:18:43.608Z,78.91
2023-04-21T20:25:03.613Z,80.3
2023-04-21T20:31:26.572Z,81.23
2023-04-21T20:37:46.584Z,82.05
2023-04-21T20:44:09.603Z,81.92
2023-04-21T20:50:29.566Z,82.26
2023-04-21T20:56:52.591Z,82.42
2023-04-21T21:03:12.678Z,82.39
2023-04-21T21:09:35.856Z,81.89
2023-04-21T21:15:55.577Z,81.7
2023-04-21T21:22:18.596Z,82.01
2023-04-21T21:28:38.605Z,81.75
2023-04-21T21:35:01.575Z,82.22
2023-04-21T21:41:21.616Z,82.45
2023-04-21T21:47:45.742Z,83.64
2023-04-21T21:54:04.565Z,83.64
2023-04-21T22:19:38.824Z,83.92
2023-04-21T22:25:58.600Z,84.38
2023-04-21T22:32:21.569Z,85.01
2023-04-21T22:38:41.637Z,85.29
2023-04-21T22:45:04.603Z,85.19
2023-04-21T22:51:24.595Z,85.18
2023-04-21T22:57:47.591Z,85.29
2023-04-21T23:04:07.616Z,84.82
2023-04-21T23:10:30.593Z,85.5
2023-04-21T23:16:50.655Z,85.66
2023-04-21T23:23:13.572Z,85.74
2023-04-21T23:29:33.601Z,86.29
2023-04-21T23:35:56.620Z,87.04
2023-04-21T23:42:16.654Z,87.18
2023-04-21T23:48:39.604Z,87.67
2023-04-21T23:54:59.604Z,87.49
